createdAt,value
2019-02-10T00:03:31.766Z,100310.01
2019-02-10T00:05:58.896Z,100317.47
2019-02-10T00:08:26.029Z,100310.09
2019-02-10T00:10:53.329Z,100310.50
2019-02-10T00:13:39.692Z,100312.70
2019-02-10T00:16:26.360Z,100310.08
2019-02-10T00:18:53.455Z,100321.92
2019-02-10T00:21:20.659Z,100323.30
2019-02-10T00:24:07.051Z,100312.77
2019-02-10T00:26:34.097Z,100320.72
2019-02-10T00:29:00.840Z,100316.36
2019-02-10T00:31:27.692Z,100322.97
2019-02-10T00:33:54.449Z,100322.10
2019-02-10T00:36:21.570Z,100322.16
2019-02-10T00:38:48.418Z,100325.23
2019-02-10T00:41:15.782Z,100322.20
2019-02-10T00:43:42.580Z,100328.78
2019-02-10T00:46:09.435Z,100322.71
2019-02-10T00:48:36.176Z,100322.77
2019-02-10T00:51:03.323Z,100328.41
2019-02-10T00:53:30.135Z,100320.17
2019-02-10T00:55:56.857Z,100319.72
2019-02-10T00:58:23.595Z,100318.44
2019-02-10T01:00:51.236Z,100319.73
2019-02-10T01:03:17.965Z,100315.40
2019-02-10T01:05:44.695Z,100317.14
2019-02-10T01:08:11.491Z,100313.66
2019-02-10T01:10:38.325Z,100303.73
2019-02-10T01:13:05.551Z,100302.94
2019-02-10T01:15:32.342Z,100302.45
2019-02-10T01:17:59.079Z,100306.41
2019-02-10T01:20:26.098Z,100298.18
2019-02-10T01:22:53.037Z,100303.39
2019-02-10T01:25:20.053Z,100295.20
2019-02-10T01:27:46.899Z,100301.79
2019-02-10T01:30:14.105Z,100297.50
2019-02-10T01:32:41.214Z,100297.49
2019-02-10T01:35:08.142Z,100286.58
2019-02-10T01:37:34.843Z,100283.59
2019-02-10T01:40:01.583Z,100280.05
2019-02-10T01:42:28.300Z,100284.70
2019-02-10T01:45:08.949Z,100283.45
2019-02-10T01:47:36.228Z,100284.32
2019-02-10T01:50:04.510Z,100282.17
2019-02-10T01:52:31.718Z,100281.28
2019-02-10T01:54:58.848Z,100275.66
2019-02-10T01:57:25.931Z,100277.45
2019-02-10T01:59:53.288Z,100275.29
2019-02-10T02:02:20.389Z,100270.93
2019-02-10T02:04:47.851Z,100265.23
2019-02-10T02:07:15.029Z,100271.35
2019-02-10T02:09:42.137Z,100259.62
2019-02-10T02:12:09.611Z,100263.05
2019-02-10T02:14:36.779Z,100262.23
2019-02-10T02:17:03.877Z,100263.97
2019-02-10T02:19:31.309Z,100258.77
2019-02-10T02:21:58.508Z,100255.66
2019-02-10T02:24:25.623Z,100262.23
2019-02-10T02:26:52.984Z,100255.29
2019-02-10T02:29:20.441Z,100255.64
2019-02-10T02:31:48.005Z,100256.90
2019-02-10T02:34:15.108Z,100252.11
2019-02-10T02:36:42.341Z,100256.79
2019-02-10T02:39:09.750Z,100249.31
2019-02-10T02:41:36.860Z,100242.30
2019-02-10T02:44:04.495Z,100242.45
2019-02-10T02:46:31.652Z,100244.64
2019-02-10T02:48:58.752Z,100244.70
2019-02-10T02:51:25.969Z,100239.92
2019-02-10T02:53:53.636Z,100236.02
2019-02-10T02:56:21.062Z,100228.27
2019-02-10T02:58:48.316Z,100223.50
2019-02-10T03:01:15.844Z,100218.66
2019-02-10T03:03:43.262Z,100211.19
2019-02-10T03:06:10.489Z,100205.08
2019-02-10T03:08:38.040Z,100206.36
2019-02-10T03:11:05.182Z,100195.16
2019-02-10T03:13:32.381Z,100197.77
2019-02-10T03:16:00.005Z,100201.27
2019-02-10T03:18:27.253Z,100188.64
2019-02-10T03:20:54.448Z,100191.72
2019-02-10T03:23:22.034Z,100190.39
2019-02-10T03:25:49.629Z,100191.28
2019-02-10T03:28:16.798Z,100187.88
2019-02-10T03:30:43.931Z,100183.13
2019-02-10T03:33:11.029Z,100186.13
2019-02-10T03:35:38.232Z,100177.89
2019-02-10T03:38:05.378Z,100180.13
2019-02-10T03:40:32.519Z,100169.22
2019-02-10T03:42:59.763Z,100171.00
2019-02-10T03:45:26.881Z,100170.95
2019-02-10T03:47:54.065Z,100170.57
2019-02-10T03:50:21.574Z,100175.78
2019-02-10T03:52:49.094Z,100171.48
2019-02-10T03:55:16.193Z,100171.48
2019-02-10T03:57:43.386Z,100167.17
2019-02-10T04:00:10.705Z,100160.66
2019-02-10T04:02:37.971Z,100155.05
2019-02-10T04:05:05.222Z,100162.09
2019-02-10T04:07:36.123Z,100150.34
2019-02-10T04:10:00.966Z,100157.66
2019-02-10T04:12:27.668Z,100151.72
2019-02-10T04:14:54.634Z,100153.11
2019-02-10T04:17:21.353Z,100147.47
2019-02-10T04:19:48.193Z,100143.14
2019-02-10T04:22:14.972Z,100143.19
2019-02-10T04:24:41.593Z,100139.28
2019-02-10T04:27:08.356Z,100134.97
2019-02-10T04:29:35.356Z,100136.32
2019-02-10T04:32:02.081Z,100129.73
2019-02-10T04:34:29.040Z,100131.55
2019-02-10T04:36:56.006Z,100127.20
2019-02-10T04:39:22.982Z,100119.47
2019-02-10T04:41:49.886Z,100117.25
2019-02-10T04:44:16.877Z,100119.42
2019-02-10T04:46:43.917Z,100114.70
2019-02-10T04:49:23.719Z,100120.34
2019-02-10T04:51:50.840Z,100113.78
2019-02-10T04:54:18.101Z,100112.90
2019-02-10T04:56:45.270Z,100103.36
2019-02-10T04:59:12.359Z,100105.53
2019-02-10T05:01:39.495Z,100096.42
2019-02-10T05:04:06.683Z,100084.33
2019-02-10T05:06:33.789Z,100084.77
2019-02-10T05:09:00.891Z,100078.61
2019-02-10T05:11:28.245Z,100079.93
2019-02-10T05:13:55.353Z,100079.48
2019-02-10T05:16:22.492Z,100068.70
2019-02-10T05:18:49.725Z,100054.67
2019-02-10T05:21:16.811Z,100064.23
2019-02-10T05:23:44.013Z,100058.15
2019-02-10T05:26:11.253Z,100052.05
2019-02-10T05:28:38.356Z,100051.17
2019-02-10T05:31:05.482Z,100043.78
2019-02-10T05:33:33.326Z,100042.92
2019-02-10T05:36:00.426Z,100041.11
2019-02-10T05:38:27.894Z,100032.32
2019-02-10T05:40:55.126Z,100022.38
2019-02-10T05:43:22.239Z,100026.23
2019-02-10T05:45:49.332Z,100018.84
2019-02-10T05:48:16.508Z,100016.59
2019-02-10T05:50:44.069Z,100008.70
2019-02-10T05:53:11.167Z,100004.33
2019-02-10T05:55:38.414Z,99996.92
2019-02-10T05:58:05.518Z,99997.41
2019-02-10T06:00:32.615Z,99987.31
2019-02-10T06:02:59.830Z,99984.71
2019-02-10T06:05:28.139Z,99982.94
2019-02-10T06:07:55.248Z,99967.62
2019-02-10T06:10:22.448Z,99963.28
2019-02-10T06:13:08.703Z,99954.47
2019-02-10T06:15:35.838Z,99954.48
2019-02-10T06:18:02.747Z,99948.91
2019-02-10T06:20:29.378Z,99957.18
2019-02-10T06:22:56.394Z,99952.63
2019-02-10T06:25:23.170Z,99954.78
2019-02-10T06:27:49.865Z,99945.98
2019-02-10T06:30:16.810Z,99933.89
2019-02-10T06:32:43.857Z,99936.83
2019-02-10T06:35:10.703Z,99929.98
2019-02-10T06:37:37.793Z,99919.41
2019-02-10T06:40:06.202Z,99918.02
2019-02-10T06:42:33.215Z,99918.56
2019-02-10T06:45:00.258Z,99918.00
2019-02-10T06:47:26.902Z,99917.09
2019-02-10T06:49:53.641Z,99917.02
2019-02-10T06:52:20.529Z,99920.86
2019-02-10T06:54:55.953Z,99918.13
2019-02-10T06:57:24.406Z,99912.47
2019-02-10T06:59:58.359Z,99904.93
2019-02-10T07:02:44.973Z,99898.30
2019-02-10T07:05:12.061Z,99890.44
2019-02-10T07:07:39.565Z,99885.92
2019-02-10T07:10:06.871Z,99875.55
2019-02-10T07:12:53.247Z,99870.75
2019-02-10T07:15:59.189Z,99867.82
2019-02-10T07:19:05.255Z,99862.30
2019-02-10T07:21:35.912Z,99856.17
2019-02-10T07:24:41.785Z,99855.23
2019-02-10T07:27:30.395Z,99856.47
2019-02-10T07:30:36.400Z,99857.25
2019-02-10T07:33:11.171Z,99853.28
2019-02-10T07:36:17.524Z,99845.94
2019-02-10T07:39:23.984Z,99844.61
2019-02-10T07:42:29.873Z,99823.67
2019-02-10T07:48:30.942Z,99807.12
2019-02-10T07:57:52.313Z,99791.27
2019-02-10T08:00:58.674Z,99793.27
2019-02-10T08:04:04.664Z,99780.84
2019-02-10T08:06:56.168Z,99778.45
2019-02-10T08:09:49.493Z,99775.77
2019-02-10T08:12:57.155Z,99773.03
2019-02-10T08:15:50.545Z,99759.92
2019-02-10T08:18:39.586Z,99746.84
2019-02-10T08:21:45.526Z,99738.45
2019-02-10T08:24:51.610Z,99745.65
2019-02-10T08:27:57.863Z,99738.40
2019-02-10T08:31:03.754Z,99733.32
2019-02-10T08:34:06.059Z,99718.96
2019-02-10T08:37:11.935Z,99714.19
2019-02-10T08:40:17.861Z,99708.44
2019-02-10T08:43:29.823Z,99693.99
2019-02-10T08:46:29.921Z,99673.95
2019-02-10T08:49:36.100Z,99666.86
2019-02-10T08:52:35.479Z,99648.79
2019-02-10T08:55:15.360Z,99645.11
2019-02-10T08:57:42.113Z,99632.94
2019-02-10T09:00:09.922Z,99616.59
2019-02-10T09:02:36.664Z,99604.30
2019-02-10T09:05:04.078Z,99597.25
2019-02-10T09:07:30.954Z,99586.38
2019-02-10T09:09:57.835Z,99584.71
2019-02-10T09:12:24.540Z,99566.54
2019-02-10T09:14:51.273Z,99567.73
2019-02-10T09:17:18.295Z,99560.08
2019-02-10T09:19:45.211Z,99539.45
2019-02-10T09:22:11.957Z,99537.73
2019-02-10T09:24:39.352Z,99533.13
2019-02-10T09:27:07.289Z,99508.18
2019-02-10T09:29:33.918Z,99502.42
2019-02-10T09:32:00.974Z,99491.88
2019-02-10T09:34:27.747Z,99475.70
2019-02-10T09:36:54.380Z,99478.78
2019-02-10T09:39:21.120Z,99459.16
2019-02-10T09:41:48.036Z,99456.61
2019-02-10T09:44:15.128Z,99440.42
2019-02-10T09:46:41.849Z,99437.34
2019-02-10T09:49:08.650Z,99434.70
2019-02-10T09:51:35.519Z,99422.01
2019-02-10T09:54:02.270Z,99405.50
2019-02-10T09:56:42.412Z,99401.65
2019-02-10T09:59:09.542Z,99392.73
2019-02-10T10:01:36.727Z,99379.53
2019-02-10T10:04:04.116Z,99382.14
2019-02-10T10:06:31.559Z,99375.79
2019-02-10T10:08:58.677Z,99369.06
2019-02-10T10:11:25.867Z,99365.83
2019-02-10T10:13:53.313Z,99345.66
2019-02-10T10:16:20.449Z,99344.77
2019-02-10T10:18:48.021Z,99312.85
2019-02-10T10:21:15.198Z,99305.02
2019-02-10T10:23:42.732Z,99316.92
2019-02-10T10:26:09.928Z,99298.60
2019-02-10T10:28:37.048Z,99282.89
2019-02-10T10:31:04.576Z,99276.67
2019-02-10T10:33:32.059Z,99279.06
2019-02-10T10:35:59.604Z,99267.42
2019-02-10T10:38:27.176Z,99235.56
2019-02-10T10:40:54.561Z,99240.80
2019-02-10T10:43:22.034Z,99238.44
2019-02-10T10:45:49.155Z,99228.44
2019-02-10T10:48:16.342Z,99211.42
2019-02-10T10:50:43.453Z,99200.58
2019-02-10T10:53:10.861Z,99189.84
2019-02-10T10:55:38.459Z,99181.56
2019-02-10T10:58:05.667Z,99181.69
2019-02-10T11:00:32.777Z,99159.64
2019-02-10T11:03:00.728Z,99159.93
2019-02-10T11:05:27.842Z,99154.08
2019-02-10T11:07:55.022Z,99155.39
2019-02-10T11:10:22.588Z,99157.84
2019-02-10T11:12:49.705Z,99150.05
2019-02-10T11:15:16.834Z,99132.97
2019-02-10T11:17:44.011Z,99134.28
2019-02-10T11:20:11.153Z,99114.28
2019-02-10T11:22:38.274Z,99108.74
2019-02-10T11:25:05.800Z,99100.51
2019-02-10T11:27:33.338Z,99096.59
2019-02-10T11:30:00.662Z,99087.30
2019-02-10T11:32:27.851Z,99086.55
2019-02-10T11:34:55.305Z,99081.22
2019-02-10T11:37:26.959Z,99072.85
2019-02-10T11:39:51.128Z,99071.31
2019-02-10T11:42:17.869Z,99044.32
2019-02-10T11:44:45.239Z,99038.24
2019-02-10T11:47:12.492Z,99032.66
2019-02-10T11:49:39.216Z,99018.69
2019-02-10T11:52:06.097Z,99024.19
2019-02-10T11:54:32.873Z,99018.23
2019-02-10T11:56:59.627Z,99009.57
2019-02-10T11:59:26.415Z,99002.18
2019-02-10T12:01:53.208Z,99002.41
2019-02-10T12:04:20.074Z,99007.17
2019-02-10T12:06:46.830Z,98993.42
2019-02-10T12:09:13.819Z,98999.91
2019-02-10T12:11:40.553Z,98981.20
2019-02-10T12:14:07.321Z,98972.41
2019-02-10T12:16:34.134Z,98984.03
2019-02-10T12:19:01.233Z,98962.11
2019-02-10T12:21:27.991Z,98957.57
2019-02-10T12:23:54.793Z,98966.48
2019-02-10T12:26:21.544Z,98958.03
2019-02-10T12:28:48.291Z,98948.13
2019-02-10T12:31:15.217Z,98941.98
2019-02-10T12:33:42.360Z,98924.70
2019-02-10T12:36:09.379Z,98919.17
2019-02-10T12:38:36.196Z,98914.98
2019-02-10T12:41:03.238Z,98901.62
2019-02-10T12:43:30.074Z,98905.03
2019-02-10T12:45:56.881Z,98900.52
2019-02-10T12:48:23.633Z,98889.20
2019-02-10T12:50:50.662Z,98889.09
2019-02-10T12:53:17.477Z,98871.84
2019-02-10T12:55:44.250Z,98874.51
2019-02-10T12:58:11.008Z,98866.06
2019-02-10T13:00:38.154Z,98861.62
2019-02-10T13:03:04.900Z,98855.89
2019-02-10T13:05:31.749Z,98853.16
2019-02-10T13:07:58.900Z,98844.47
2019-02-10T13:10:25.747Z,98825.50
2019-02-10T13:12:52.486Z,98829.42
2019-02-10T13:15:19.582Z,98819.81
2019-02-10T13:17:46.614Z,98828.11
2019-02-10T13:20:13.368Z,98819.93
2019-02-10T13:22:40.283Z,98804.58
2019-02-10T13:25:07.466Z,98797.64
2019-02-10T13:27:34.211Z,98796.86
2019-02-10T13:30:01.074Z,98792.34
2019-02-10T13:32:27.821Z,98785.47
2019-02-10T13:34:54.844Z,98789.67
2019-02-10T13:37:21.796Z,98782.63
2019-02-10T13:39:48.549Z,98780.47
2019-02-10T13:42:15.288Z,98775.42
2019-02-10T13:44:42.171Z,98772.41
2019-02-10T13:47:08.942Z,98775.55
2019-02-10T13:49:35.690Z,98772.80
2019-02-10T13:52:02.677Z,98765.23
2019-02-10T13:54:29.518Z,98768.48
2019-02-10T13:56:56.274Z,98759.39
2019-02-10T13:59:23.071Z,98749.53
2019-02-10T14:01:49.849Z,98753.23
2019-02-10T14:04:17.085Z,98755.06
2019-02-10T14:06:45.226Z,98744.94
2019-02-10T14:09:12.903Z,98736.00
2019-02-10T14:11:40.395Z,98736.97
2019-02-10T14:14:07.591Z,98726.57
2019-02-10T14:16:34.698Z,98723.77
2019-02-10T14:19:01.830Z,98715.19
2019-02-10T14:21:29.404Z,98709.45
2019-02-10T14:23:56.514Z,98710.30
2019-02-10T14:26:23.804Z,98713.95
2019-02-10T14:28:50.981Z,98714.06
2019-02-10T14:31:18.110Z,98711.45
2019-02-10T14:33:45.206Z,98706.43
2019-02-10T14:36:12.437Z,98692.69
2019-02-10T14:38:39.563Z,98691.84
2019-02-10T14:41:06.677Z,98681.53
2019-02-10T14:43:33.864Z,98686.36
2019-02-10T14:46:00.981Z,98681.13
2019-02-10T14:48:28.101Z,98680.62
2019-02-10T14:50:55.340Z,98679.25
2019-02-10T14:53:22.797Z,98672.31
2019-02-10T14:55:50.327Z,98670.34
2019-02-10T14:58:17.562Z,98662.03
2019-02-10T15:00:44.698Z,98656.41
2019-02-10T15:03:24.832Z,98658.05
2019-02-10T15:05:52.390Z,98653.49
2019-02-10T15:08:19.530Z,98649.88
2019-02-10T15:10:46.767Z,98650.48
2019-02-10T15:13:13.926Z,98642.30
2019-02-10T15:15:41.039Z,98629.17
2019-02-10T15:18:08.218Z,98626.22
2019-02-10T15:20:35.328Z,98623.27
2019-02-10T15:23:02.495Z,98617.92
2019-02-10T15:25:29.730Z,98611.97
2019-02-10T15:27:56.840Z,98604.97
2019-02-10T15:30:24.348Z,98601.50
2019-02-10T15:32:51.527Z,98595.36
2019-02-10T15:35:19.341Z,98587.34
2019-02-10T15:37:46.447Z,98583.47
2019-02-10T15:40:13.630Z,98581.38
2019-02-10T15:42:41.219Z,98573.41
2019-02-10T15:45:08.797Z,98571.42
2019-02-10T15:47:36.909Z,98570.80
2019-02-10T15:50:04.575Z,98569.16
2019-02-10T15:52:31.683Z,98565.69
2019-02-10T15:54:58.924Z,98565.56
2019-02-10T15:57:26.025Z,98553.67
2019-02-10T15:59:53.527Z,98562.49
2019-02-10T16:02:21.184Z,98553.67
2019-02-10T16:05:00.954Z,98546.80
2019-02-10T16:07:28.142Z,98543.52
2019-02-10T16:09:55.307Z,98536.58
2019-02-10T16:12:22.401Z,98537.59
2019-02-10T16:14:49.567Z,98530.44
2019-02-10T16:17:16.652Z,98529.06
2019-02-10T16:19:43.970Z,98520.98
2019-02-10T16:22:11.587Z,98522.03
2019-02-10T16:24:38.725Z,98518.22
2019-02-10T16:27:05.887Z,98511.05
2019-02-10T16:29:33.145Z,98512.13
2019-02-10T16:32:00.661Z,98505.02
2019-02-10T16:34:27.764Z,98501.88
2019-02-10T16:36:54.934Z,98495.62
2019-02-10T16:39:22.032Z,98486.80
2019-02-10T16:41:49.508Z,98488.38
2019-02-10T16:44:16.691Z,98491.91
2019-02-10T16:46:43.814Z,98485.20
2019-02-10T16:49:10.928Z,98492.30
2019-02-10T16:51:38.103Z,98485.92
2019-02-10T16:54:05.205Z,98487.48
2019-02-10T16:56:32.635Z,98481.70
2019-02-10T16:58:59.980Z,98481.77
2019-02-10T17:01:27.093Z,98484.77
2019-02-10T17:03:54.221Z,98482.88
2019-02-10T17:06:21.442Z,98479.11
2019-02-10T17:08:48.555Z,98478.64
2019-02-10T17:11:15.675Z,98481.06
2019-02-10T17:13:42.897Z,98476.81
2019-02-10T17:16:10.030Z,98472.97
2019-02-10T17:18:37.530Z,98470.36
2019-02-10T17:21:04.759Z,98472.52
2019-02-10T17:23:33.320Z,98465.05
2019-02-10T17:26:00.546Z,98464.53
2019-02-10T17:28:27.922Z,98461.61
2019-02-10T17:30:54.669Z,98454.84
2019-02-10T17:33:21.529Z,98463.08
2019-02-10T17:35:48.332Z,98469.45
2019-02-10T17:38:15.086Z,98467.09
2019-02-10T17:41:03.649Z,98459.00
2019-02-10T17:43:30.835Z,98467.02
2019-02-10T17:45:57.946Z,98464.31
2019-02-10T17:48:25.902Z,98467.63
2019-02-10T17:50:53.016Z,98462.72
2019-02-10T17:53:20.503Z,98464.11
2019-02-10T17:55:47.741Z,98463.32
2019-02-10T17:58:14.854Z,98464.49
2019-02-10T18:00:45.446Z,98466.41
2019-02-10T18:03:12.698Z,98469.73
2019-02-10T18:05:40.162Z,98467.72
2019-02-10T18:08:07.701Z,98475.50
2019-02-10T18:10:34.864Z,98472.18
2019-02-10T18:13:02.512Z,98468.18
2019-02-10T18:15:38.086Z,98465.63
2019-02-10T18:18:24.857Z,98471.44
2019-02-10T18:21:11.608Z,98469.73
2019-02-10T18:23:58.005Z,98470.52
2019-02-10T18:26:44.568Z,98474.59
2019-02-10T18:29:36.476Z,98473.59
2019-02-10T18:32:19.507Z,98472.53
2019-02-10T18:34:54.246Z,98475.05
2019-02-10T18:37:42.764Z,98479.72
2019-02-10T18:40:29.225Z,98483.56
2019-02-10T18:43:15.634Z,98476.70
2019-02-10T18:45:48.382Z,98483.71
2019-02-10T18:48:34.785Z,98483.31
2019-02-10T18:51:21.163Z,98485.16
2019-02-10T18:54:07.643Z,98480.95
2019-02-10T18:56:54.439Z,98485.73
2019-02-10T18:59:28.640Z,98482.78
2019-02-10T19:02:15.234Z,98490.56
2019-02-10T19:05:02.064Z,98495.70
2019-02-10T19:07:48.780Z,98498.33
2019-02-10T19:10:35.900Z,98496.56
2019-02-10T19:13:22.594Z,98508.89
2019-02-10T19:15:59.362Z,98502.73
2019-02-10T19:18:46.078Z,98508.19
2019-02-10T19:21:32.763Z,98515.20
2019-02-10T19:24:19.322Z,98524.23
2019-02-10T19:27:06.075Z,98528.31
2019-02-10T19:29:52.750Z,98536.11
2019-02-10T19:32:39.406Z,98537.80
2019-02-10T19:35:25.865Z,98535.19
2019-02-10T19:38:12.977Z,98531.26
2019-02-10T19:40:59.767Z,98542.59
2019-02-10T19:43:46.512Z,98527.78
2019-02-10T19:46:33.663Z,98520.31
2019-02-10T19:49:20.203Z,98524.78
2019-02-10T19:52:07.076Z,98529.87
2019-02-10T19:54:55.053Z,98539.08
2019-02-10T19:57:42.053Z,98538.09
2019-02-10T20:00:28.761Z,98539.74
2019-02-10T20:03:34.918Z,98539.92
2019-02-10T20:06:22.310Z,98539.64
2019-02-10T20:08:58.535Z,98536.49
2019-02-10T20:11:45.334Z,98537.23
2019-02-10T20:14:32.333Z,98531.36
2019-02-10T20:17:09.640Z,98528.73
2019-02-10T20:19:57.518Z,98529.83
2019-02-10T20:22:44.442Z,98541.81
2019-02-10T20:25:31.663Z,98556.34
2019-02-10T20:28:19.344Z,98565.46
2019-02-10T20:31:06.399Z,98561.72
2019-02-10T20:33:54.444Z,98547.06
2019-02-10T20:36:41.160Z,98558.38
2019-02-10T20:39:47.484Z,98563.93
2019-02-10T20:42:56.602Z,98543.12
2019-02-10T20:45:43.604Z,98538.34
2019-02-10T20:48:18.763Z,98544.56
2019-02-10T20:51:05.815Z,98542.86
2019-02-10T20:53:52.466Z,98561.65
2019-02-10T20:56:39.494Z,98567.01
2019-02-10T20:59:26.000Z,98572.40
2019-02-10T21:02:03.529Z,98585.42
2019-02-10T21:04:50.222Z,98579.93
2019-02-10T21:07:37.650Z,98573.63
2019-02-10T21:10:25.104Z,98575.17
2019-02-10T21:13:02.168Z,98578.88
2019-02-10T21:15:48.844Z,98578.96
2019-02-10T21:18:35.766Z,98578.03
2019-02-10T21:21:22.316Z,98582.87
2019-02-10T21:24:01.030Z,98577.88
2019-02-10T21:26:47.706Z,98575.06
2019-02-10T21:29:34.624Z,98576.44
2019-02-10T21:32:21.396Z,98572.01
2019-02-10T21:35:08.187Z,98576.44
2019-02-10T21:37:54.782Z,98572.38
2019-02-10T21:40:41.455Z,98582.39
2019-02-10T21:43:28.126Z,98596.05
2019-02-10T21:46:15.215Z,98587.42
2019-02-10T21:48:49.256Z,98576.73
2019-02-10T21:51:16.357Z,98579.64
2019-02-10T21:53:50.499Z,98566.48
2019-02-10T21:56:17.608Z,98560.48
2019-02-10T21:58:44.729Z,98567.09
2019-02-10T22:01:11.979Z,98575.62
2019-02-10T22:03:39.081Z,98574.09
2019-02-10T22:06:06.202Z,98572.28
2019-02-10T22:08:33.385Z,98565.63
2019-02-10T22:11:00.458Z,98565.05
2019-02-10T22:13:27.951Z,98568.98
2019-02-10T22:15:55.089Z,98582.17
2019-02-10T22:18:22.242Z,98585.97
2019-02-10T22:20:49.376Z,98591.84
2019-02-10T22:23:16.904Z,98594.91
2019-02-10T22:25:44.364Z,98599.44
2019-02-10T22:28:11.438Z,98607.68
2019-02-10T22:30:38.881Z,98612.02
2019-02-10T22:33:06.432Z,98612.11
2019-02-10T22:35:33.523Z,98615.30
2019-02-10T22:38:00.747Z,98611.38
2019-02-10T22:40:27.847Z,98609.23
2019-02-10T22:42:54.948Z,98609.22
2019-02-10T22:45:22.132Z,98605.30
2019-02-10T22:47:49.677Z,98597.34
2019-02-10T22:50:16.777Z,98595.57
2019-02-10T22:52:43.959Z,98589.15
2019-02-10T22:55:11.210Z,98597.85
2019-02-10T22:57:38.338Z,98589.21
2019-02-10T23:02:46.671Z,98596.55
2019-02-10T23:05:13.768Z,98592.23
2019-02-10T23:07:40.862Z,98591.49
2019-02-10T23:10:08.423Z,98591.83
2019-02-10T23:12:35.511Z,98581.14
2019-02-10T23:15:02.754Z,98575.75
2019-02-10T23:17:29.923Z,98578.92
2019-02-10T23:19:57.036Z,98570.02
2019-02-10T23:22:24.131Z,98570.17
2019-02-10T23:24:51.343Z,98570.30
2019-02-10T23:27:18.454Z,98559.05
2019-02-10T23:29:45.622Z,98561.94
2019-02-10T23:32:13.179Z,98564.14
2019-02-10T23:34:40.247Z,98566.88
2019-02-10T23:37:07.322Z,98565.84
2019-02-10T23:39:34.524Z,98574.66
2019-02-10T23:42:01.623Z,98571.72
2019-02-10T23:44:28.823Z,98569.78
2019-02-10T23:46:56.377Z,98568.77
2019-02-10T23:49:23.477Z,98580.35
2019-02-10T23:51:50.576Z,98574.91
2019-02-10T23:54:18.040Z,98581.20
2019-02-10T23:56:47.262Z,98580.59
2019-02-10T23:59:14.157Z,98577.53
